5MI2 weather

Mc Question's Airport
Leroy, Michigan, United States

Public forecast

Using degrees Fahrenheit for public forecast. Weather courtesy of forecast.io.

Closest aviation weather report (METAR) to Mc Question's Airport

Closest report is Wexford County Airport, 11.9 nm (22.1 km) N. Retrieved 2019/10/17 11:38 UTC (0 seconds ago):

KCAD 171138Z AUTO 32007KT 10SM OVC031 06/04 A2988 RMK AO2 T00600045

Closest aviation forecast (TAF) to Mc Question's Airport

Closest forecast is Manistee Co Blacker Airport, 36.8 nm (68.1 km) WNW. Retrieved 2019/10/17 06:18 UTC (5 hours ago):

TAF KMBL 170615Z 1706/1806 33010G18KT P6SM VCSH BKN035 FM171000 34009KT P6SM VCSH BKN027 FM171500 34011G20KT P6SM VCSH BKN035 FM172300 35009KT P6SM BKN035 FM180400 VRB03KT P6SM SCT035